sensor_id;sensor_type;location;lat;lon;timestamp;P1;durP1;ratioP1;P2;durP2;ratioP2
53497;SDS011;39382;47.168;16.008;2024-01-10T00:01:17;10.00;;;5.70;;
53497;SDS011;39382;47.168;16.008;2024-01-10T00:03:43;13.70;;;4.88;;
53497;SDS011;39382;47.168;16.008;2024-01-10T00:06:09;12.40;;;5.43;;
53497;SDS011;39382;47.168;16.008;2024-01-10T00:08:35;9.10;;;4.63;;
53497;SDS011;39382;47.168;16.008;2024-01-10T00:11:01;14.48;;;6.20;;
53497;SDS011;39382;47.168;16.008;2024-01-10T00:13:27;11.40;;;4.82;;
53497;SDS011;39382;47.168;16.008;2024-01-10T00:15:53;12.80;;;5.53;;
53497;SDS011;39382;47.168;16.008;2024-01-10T00:18:20;11.88;;;4.88;;
53497;SDS011;39382;47.168;16.008;2024-01-10T00:20:46;12.05;;;4.97;;
53497;SDS011;39382;47.168;16.008;2024-01-10T00:23:12;13.38;;;4.50;;
53497;SDS011;39382;47.168;16.008;2024-01-10T00:25:38;16.83;;;4.82;;
53497;SDS011;39382;47.168;16.008;2024-01-10T00:28:04;11.52;;;5.30;;
53497;SDS011;39382;47.168;16.008;2024-01-10T00:30:30;13.73;;;5.88;;
53497;SDS011;39382;47.168;16.008;2024-01-10T00:32:56;14.02;;;6.43;;
53497;SDS011;39382;47.168;16.008;2024-01-10T00:35:21;10.10;;;4.90;;
53497;SDS011;39382;47.168;16.008;2024-01-10T00:37:47;12.52;;;5.35;;
53497;SDS011;39382;47.168;16.008;2024-01-10T00:40:13;12.00;;;4.65;;
53497;SDS011;39382;47.168;16.008;2024-01-10T00:42:38;15.77;;;6.13;;
53497;SDS011;39382;47.168;16.008;2024-01-10T00:45:04;10.32;;;5.60;;
53497;SDS011;39382;47.168;16.008;2024-01-10T00:47:30;15.20;;;5.32;;
53497;SDS011;39382;47.168;16.008;2024-01-10T00:49:55;12.18;;;5.40;;
53497;SDS011;39382;47.168;16.008;2024-01-10T00:52:21;11.07;;;5.45;;
53497;SDS011;39382;47.168;16.008;2024-01-10T00:54:47;14.23;;;5.10;;
53497;SDS011;39382;47.168;16.008;2024-01-10T00:57:12;11.02;;;5.03;;
53497;SDS011;39382;47.168;16.008;2024-01-10T00:59:39;10.82;;;5.10;;
53497;SDS011;39382;47.168;16.008;2024-01-10T01:02:05;8.93;;;4.28;;
53497;SDS011;39382;47.168;16.008;2024-01-10T01:04:31;18.85;;;5.88;;
53497;SDS011;39382;47.168;16.008;2024-01-10T01:06:56;13.30;;;5.43;;
53497;SDS011;39382;47.168;16.008;2024-01-10T01:09:22;8.82;;;5.25;;
53497;SDS011;39382;47.168;16.008;2024-01-10T01:11:47;16.05;;;5.82;;
53497;SDS011;39382;47.168;16.008;2024-01-10T01:14:13;11.55;;;5.53;;
53497;SDS011;39382;47.168;16.008;2024-01-10T01:16:39;10.23;;;4.47;;
53497;SDS011;39382;47.168;16.008;2024-01-10T01:19:04;12.85;;;5.18;;
53497;SDS011;39382;47.168;16.008;2024-01-10T01:21:30;11.05;;;5.75;;
53497;SDS011;39382;47.168;16.008;2024-01-10T01:23:56;10.73;;;5.80;;
53497;SDS011;39382;47.168;16.008;2024-01-10T01:26:21;9.98;;;4.93;;
53497;SDS011;39382;47.168;16.008;2024-01-10T01:28:47;12.15;;;5.85;;
53497;SDS011;39382;47.168;16.008;2024-01-10T01:31:12;9.68;;;4.95;;
53497;SDS011;39382;47.168;16.008;2024-01-10T01:33:38;10.93;;;6.32;;
53497;SDS011;39382;47.168;16.008;2024-01-10T01:36:04;11.23;;;5.47;;
53497;SDS011;39382;47.168;16.008;2024-01-10T01:38:31;13.27;;;5.05;;
53497;SDS011;39382;47.168;16.008;2024-01-10T01:40:56;11.27;;;5.68;;
53497;SDS011;39382;47.168;16.008;2024-01-10T01:43:23;10.98;;;4.28;;
53497;SDS011;39382;47.168;16.008;2024-01-10T01:45:53;14.02;;;5.18;;
53497;SDS011;39382;47.168;16.008;2024-01-10T01:48:20;17.55;;;4.85;;
53497;SDS011;39382;47.168;16.008;2024-01-10T01:50:47;14.00;;;5.63;;
53497;SDS011;39382;47.168;16.008;2024-01-10T01:53:15;11.10;;;5.93;;
53497;SDS011;39382;47.168;16.008;2024-01-10T01:55:43;14.07;;;5.82;;
53497;SDS011;39382;47.168;16.008;2024-01-10T01:58:10;11.50;;;5.22;;
53497;SDS011;39382;47.168;16.008;2024-01-10T02:00:36;13.77;;;5.35;;
53497;SDS011;39382;47.168;16.008;2024-01-10T02:03:03;13.43;;;5.78;;
53497;SDS011;39382;47.168;16.008;2024-01-10T02:05:31;11.90;;;5.55;;
53497;SDS011;39382;47.168;16.008;2024-01-10T02:07:57;9.52;;;5.47;;
53497;SDS011;39382;47.168;16.008;2024-01-10T02:10:23;12.90;;;6.40;;
53497;SDS011;39382;47.168;16.008;2024-01-10T02:12:49;16.38;;;5.57;;
53497;SDS011;39382;47.168;16.008;2024-01-10T02:15:14;11.07;;;5.22;;
53497;SDS011;39382;47.168;16.008;2024-01-10T02:17:41;19.00;;;7.07;;
53497;SDS011;39382;47.168;16.008;2024-01-10T02:20:10;17.00;;;6.88;;
53497;SDS011;39382;47.168;16.008;2024-01-10T02:22:37;17.60;;;6.25;;
53497;SDS011;39382;47.168;16.008;2024-01-10T02:25:04;12.30;;;5.28;;
53497;SDS011;39382;47.168;16.008;2024-01-10T02:27:34;13.80;;;5.22;;
53497;SDS011;39382;47.168;16.008;2024-01-10T02:30:01;12.80;;;6.07;;
53497;SDS011;39382;47.168;16.008;2024-01-10T02:32:28;17.42;;;6.22;;
53497;SDS011;39382;47.168;16.008;2024-01-10T02:34:54;10.65;;;4.80;;
53497;SDS011;39382;47.168;16.008;2024-01-10T02:37:19;13.55;;;5.28;;
53497;SDS011;39382;47.168;16.008;2024-01-10T02:39:45;11.23;;;5.45;;
53497;SDS011;39382;47.168;16.008;2024-01-10T02:42:11;11.88;;;5.35;;
53497;SDS011;39382;47.168;16.008;2024-01-10T02:44:36;14.80;;;5.57;;
53497;SDS011;39382;47.168;16.008;2024-01-10T02:47:02;11.40;;;5.50;;
53497;SDS011;39382;47.168;16.008;2024-01-10T02:49:28;13.20;;;4.45;;
53497;SDS011;39382;47.168;16.008;2024-01-10T02:51:53;11.18;;;4.38;;
53497;SDS011;39382;47.168;16.008;2024-01-10T02:54:19;7.63;;;4.28;;
53497;SDS011;39382;47.168;16.008;2024-01-10T02:56:45;10.15;;;4.18;;
53497;SDS011;39382;47.168;16.008;2024-01-10T02:59:11;12.15;;;4.60;;
53497;SDS011;39382;47.168;16.008;2024-01-10T03:01:36;13.65;;;5.03;;
53497;SDS011;39382;47.168;16.008;2024-01-10T03:04:02;11.95;;;4.90;;
53497;SDS011;39382;47.168;16.008;2024-01-10T03:06:28;14.68;;;4.85;;
53497;SDS011;39382;47.168;16.008;2024-01-10T03:08:54;12.82;;;4.43;;
53497;SDS011;39382;47.168;16.008;2024-01-10T03:11:20;12.82;;;5.57;;
53497;SDS011;39382;47.168;16.008;2024-01-10T03:13:46;10.40;;;4.72;;
53497;SDS011;39382;47.168;16.008;2024-01-10T03:16:13;10.13;;;5.13;;
53497;SDS011;39382;47.168;16.008;2024-01-10T03:18:39;10.40;;;5.28;;
53497;SDS011;39382;47.168;16.008;2024-01-10T03:21:05;10.30;;;4.95;;
53497;SDS011;39382;47.168;16.008;2024-01-10T03:23:30;11.85;;;4.40;;
53497;SDS011;39382;47.168;16.008;2024-01-10T03:25:56;11.55;;;4.75;;
53497;SDS011;39382;47.168;16.008;2024-01-10T03:28:22;8.05;;;4.57;;
53497;SDS011;39382;47.168;16.008;2024-01-10T03:30:48;10.07;;;4.95;;
53497;SDS011;39382;47.168;16.008;2024-01-10T03:33:14;12.25;;;4.18;;
53497;SDS011;39382;47.168;16.008;2024-01-10T03:35:40;9.73;;;4.13;;
53497;SDS011;39382;47.168;16.008;2024-01-10T03:38:07;12.07;;;4.95;;
53497;SDS011;39382;47.168;16.008;2024-01-10T03:40:33;11.77;;;5.88;;
53497;SDS011;39382;47.168;16.008;2024-01-10T03:42:58;13.93;;;4.90;;
53497;SDS011;39382;47.168;16.008;2024-01-10T03:45:24;18.70;;;5.68;;
53497;SDS011;39382;47.168;16.008;2024-01-10T03:47:50;14.85;;;4.75;;
53497;SDS011;39382;47.168;16.008;2024-01-10T03:50:19;10.60;;;4.38;;
53497;SDS011;39382;47.168;16.008;2024-01-10T03:52:45;11.20;;;4.38;;
53497;SDS011;39382;47.168;16.008;2024-01-10T03:55:12;12.73;;;5.25;;
53497;SDS011;39382;47.168;16.008;2024-01-10T03:57:38;12.30;;;4.57;;
53497;SDS011;39382;47.168;16.008;2024-01-10T04:00:05;11.45;;;4.35;;
53497;SDS011;39382;47.168;16.008;2024-01-10T04:02:36;12.73;;;4.63;;
53497;SDS011;39382;47.168;16.008;2024-01-10T04:05:05;12.15;;;4.32;;
53497;SDS011;39382;47.168;16.008;2024-01-10T04:07:32;8.50;;;4.35;;
53497;SDS011;39382;47.168;16.008;2024-01-10T04:09:58;13.25;;;5.25;;
53497;SDS011;39382;47.168;16.008;2024-01-10T04:12:24;11.45;;;4.55;;
53497;SDS011;39382;47.168;16.008;2024-01-10T04:14:49;10.32;;;4.90;;
53497;SDS011;39382;47.168;16.008;2024-01-10T04:17:15;16.27;;;4.95;;
53497;SDS011;39382;47.168;16.008;2024-01-10T04:19:40;8.65;;;4.43;;
53497;SDS011;39382;47.168;16.008;2024-01-10T04:22:06;10.05;;;4.95;;
53497;SDS011;39382;47.168;16.008;2024-01-10T04:24:32;16.17;;;5.07;;
53497;SDS011;39382;47.168;16.008;2024-01-10T04:26:57;11.02;;;5.30;;
53497;SDS011;39382;47.168;16.008;2024-01-10T04:29:23;11.77;;;5.07;;
53497;SDS011;39382;47.168;16.008;2024-01-10T04:31:49;18.65;;;6.53;;
53497;SDS011;39382;47.168;16.008;2024-01-10T04:34:15;8.60;;;4.55;;
53497;SDS011;39382;47.168;16.008;2024-01-10T04:36:40;12.63;;;5.13;;
53497;SDS011;39382;47.168;16.008;2024-01-10T04:39:06;9.98;;;4.38;;
53497;SDS011;39382;47.168;16.008;2024-01-10T04:41:32;14.80;;;5.28;;
53497;SDS011;39382;47.168;16.008;2024-01-10T04:43:57;10.75;;;4.63;;
53497;SDS011;39382;47.168;16.008;2024-01-10T04:46:23;11.10;;;4.93;;
53497;SDS011;39382;47.168;16.008;2024-01-10T04:48:48;13.95;;;5.07;;
53497;SDS011;39382;47.168;16.008;2024-01-10T04:51:14;13.70;;;5.53;;
53497;SDS011;39382;47.168;16.008;2024-01-10T04:53:40;17.23;;;5.82;;
53497;SDS011;39382;47.168;16.008;2024-01-10T04:56:05;7.60;;;4.50;;
53497;SDS011;39382;47.168;16.008;2024-01-10T04:58:31;14.48;;;4.97;;
53497;SDS011;39382;47.168;16.008;2024-01-10T05:00:58;12.57;;;5.05;;
53497;SDS011;39382;47.168;16.008;2024-01-10T05:03:23;13.00;;;5.65;;
53497;SDS011;39382;47.168;16.008;2024-01-10T05:05:49;11.82;;;5.50;;
53497;SDS011;39382;47.168;16.008;2024-01-10T05:08:15;16.63;;;6.15;;
53497;SDS011;39382;47.168;16.008;2024-01-10T05:10:40;9.43;;;5.13;;
53497;SDS011;39382;47.168;16.008;2024-01-10T05:13:06;16.30;;;5.93;;
53497;SDS011;39382;47.168;16.008;2024-01-10T05:15:32;9.65;;;5.38;;
53497;SDS011;39382;47.168;16.008;2024-01-10T05:17:57;13.23;;;6.13;;
53497;SDS011;39382;47.168;16.008;2024-01-10T05:20:23;8.52;;;5.55;;
53497;SDS011;39382;47.168;16.008;2024-01-10T05:22:48;12.02;;;5.20;;
53497;SDS011;39382;47.168;16.008;2024-01-10T05:25:14;10.20;;;4.60;;
53497;SDS011;39382;47.168;16.008;2024-01-10T05:27:43;14.95;;;5.82;;
53497;SDS011;39382;47.168;16.008;2024-01-10T05:30:09;14.80;;;6.40;;
53497;SDS011;39382;47.168;16.008;2024-01-10T05:32:37;15.10;;;5.63;;
53497;SDS011;39382;47.168;16.008;2024-01-10T05:35:03;15.93;;;7.28;;
53497;SDS011;39382;47.168;16.008;2024-01-10T05:37:30;12.68;;;5.65;;
53497;SDS011;39382;47.168;16.008;2024-01-10T05:39:55;19.73;;;6.55;;
53497;SDS011;39382;47.168;16.008;2024-01-10T05:42:21;15.88;;;5.70;;
53497;SDS011;39382;47.168;16.008;2024-01-10T05:44:47;15.63;;;6.40;;
53497;SDS011;39382;47.168;16.008;2024-01-10T05:47:12;14.70;;;6.43;;
53497;SDS011;39382;47.168;16.008;2024-01-10T05:49:38;10.50;;;5.95;;
53497;SDS011;39382;47.168;16.008;2024-01-10T05:52:04;13.40;;;6.72;;
53497;SDS011;39382;47.168;16.008;2024-01-10T05:54:30;14.65;;;6.60;;
53497;SDS011;39382;47.168;16.008;2024-01-10T05:56:55;12.23;;;6.85;;
53497;SDS011;39382;47.168;16.008;2024-01-10T05:59:21;13.95;;;6.28;;
53497;SDS011;39382;47.168;16.008;2024-01-10T06:01:46;11.65;;;5.65;;
53497;SDS011;39382;47.168;16.008;2024-01-10T06:04:12;11.15;;;5.38;;
53497;SDS011;39382;47.168;16.008;2024-01-10T06:06:38;19.70;;;7.20;;
53497;SDS011;39382;47.168;16.008;2024-01-10T06:09:03;17.40;;;7.38;;
53497;SDS011;39382;47.168;16.008;2024-01-10T06:11:29;17.80;;;5.75;;
53497;SDS011;39382;47.168;16.008;2024-01-10T06:13:55;18.73;;;7.30;;
53497;SDS011;39382;47.168;16.008;2024-01-10T06:16:22;15.02;;;7.05;;
53497;SDS011;39382;47.168;16.008;2024-01-10T06:18:48;21.40;;;6.82;;
53497;SDS011;39382;47.168;16.008;2024-01-10T06:21:14;13.57;;;6.85;;
53497;SDS011;39382;47.168;16.008;2024-01-10T06:23:39;18.65;;;6.88;;
53497;SDS011;39382;47.168;16.008;2024-01-10T06:26:05;13.65;;;7.10;;
53497;SDS011;39382;47.168;16.008;2024-01-10T06:28:31;13.13;;;6.35;;
53497;SDS011;39382;47.168;16.008;2024-01-10T06:30:57;14.05;;;6.65;;
53497;SDS011;39382;47.168;16.008;2024-01-10T06:33:22;11.65;;;5.90;;
53497;SDS011;39382;47.168;16.008;2024-01-10T06:35:49;17.08;;;6.30;;
53497;SDS011;39382;47.168;16.008;2024-01-10T06:38:15;11.80;;;5.90;;
53497;SDS011;39382;47.168;16.008;2024-01-10T06:40:41;13.38;;;5.63;;
53497;SDS011;39382;47.168;16.008;2024-01-10T06:43:09;11.27;;;5.03;;
53497;SDS011;39382;47.168;16.008;2024-01-10T06:45:35;21.10;;;5.97;;
53497;SDS011;39382;47.168;16.008;2024-01-10T06:48:00;14.77;;;4.75;;
53497;SDS011;39382;47.168;16.008;2024-01-10T06:50:26;16.25;;;6.47;;
53497;SDS011;39382;47.168;16.008;2024-01-10T06:52:52;11.93;;;6.30;;
53497;SDS011;39382;47.168;16.008;2024-01-10T06:55:17;24.17;;;7.40;;
53497;SDS011;39382;47.168;16.008;2024-01-10T06:57:43;15.45;;;5.93;;
53497;SDS011;39382;47.168;16.008;2024-01-10T07:00:09;19.98;;;7.80;;
53497;SDS011;39382;47.168;16.008;2024-01-10T07:02:36;17.15;;;5.97;;
53497;SDS011;39382;47.168;16.008;2024-01-10T07:05:03;17.15;;;6.85;;
53497;SDS011;39382;47.168;16.008;2024-01-10T07:07:32;15.48;;;6.85;;
53497;SDS011;39382;47.168;16.008;2024-01-10T07:10:00;16.30;;;6.88;;
53497;SDS011;39382;47.168;16.008;2024-01-10T07:12:29;13.32;;;6.18;;
53497;SDS011;39382;47.168;16.008;2024-01-10T07:14:58;14.27;;;5.90;;
53497;SDS011;39382;47.168;16.008;2024-01-10T07:17:24;17.15;;;7.05;;
53497;SDS011;39382;47.168;16.008;2024-01-10T07:19:50;14.75;;;5.88;;
53497;SDS011;39382;47.168;16.008;2024-01-10T07:22:16;14.68;;;5.63;;
53497;SDS011;39382;47.168;16.008;2024-01-10T07:24:43;16.60;;;6.05;;
53497;SDS011;39382;47.168;16.008;2024-01-10T07:27:09;10.40;;;6.13;;
53497;SDS011;39382;47.168;16.008;2024-01-10T07:29:35;17.45;;;6.93;;
53497;SDS011;39382;47.168;16.008;2024-01-10T07:32:00;16.98;;;8.25;;
53497;SDS011;39382;47.168;16.008;2024-01-10T07:34:26;13.23;;;6.72;;
53497;SDS011;39382;47.168;16.008;2024-01-10T07:36:52;18.65;;;6.88;;
53497;SDS011;39382;47.168;16.008;2024-01-10T07:39:19;15.68;;;6.55;;
53497;SDS011;39382;47.168;16.008;2024-01-10T07:41:45;17.23;;;6.28;;
53497;SDS011;39382;47.168;16.008;2024-01-10T07:44:11;13.75;;;6.93;;
53497;SDS011;39382;47.168;16.008;2024-01-10T07:46:37;16.77;;;7.03;;
53497;SDS011;39382;47.168;16.008;2024-01-10T07:49:06;16.38;;;7.82;;
53497;SDS011;39382;47.168;16.008;2024-01-10T07:51:31;20.50;;;7.88;;
53497;SDS011;39382;47.168;16.008;2024-01-10T07:53:57;23.73;;;9.82;;
53497;SDS011;39382;47.168;16.008;2024-01-10T07:56:24;22.65;;;9.05;;
53497;SDS011;39382;47.168;16.008;2024-01-10T07:58:50;22.00;;;8.60;;
53497;SDS011;39382;47.168;16.008;2024-01-10T08:01:17;28.77;;;9.82;;
53497;SDS011;39382;47.168;16.008;2024-01-10T08:03:43;23.02;;;9.65;;
53497;SDS011;39382;47.168;16.008;2024-01-10T08:06:08;27.17;;;9.45;;
53497;SDS011;39382;47.168;16.008;2024-01-10T08:08:35;26.85;;;13.13;;
53497;SDS011;39382;47.168;16.008;2024-01-10T08:11:01;27.13;;;14.43;;
53497;SDS011;39382;47.168;16.008;2024-01-10T08:13:27;23.67;;;10.48;;
53497;SDS011;39382;47.168;16.008;2024-01-10T08:15:53;31.63;;;13.18;;
53497;SDS011;39382;47.168;16.008;2024-01-10T08:18:19;23.80;;;12.23;;
53497;SDS011;39382;47.168;16.008;2024-01-10T08:20:45;18.85;;;9.32;;
53497;SDS011;39382;47.168;16.008;2024-01-10T08:23:11;23.55;;;10.77;;
53497;SDS011;39382;47.168;16.008;2024-01-10T08:25:36;22.38;;;11.80;;
53497;SDS011;39382;47.168;16.008;2024-01-10T08:28:03;24.92;;;10.65;;
53497;SDS011;39382;47.168;16.008;2024-01-10T08:30:29;25.38;;;10.85;;
53497;SDS011;39382;47.168;16.008;2024-01-10T08:32:54;29.15;;;12.30;;
53497;SDS011;39382;47.168;16.008;2024-01-10T08:35:20;32.47;;;12.77;;
53497;SDS011;39382;47.168;16.008;2024-01-10T08:37:46;24.00;;;11.40;;
53497;SDS011;39382;47.168;16.008;2024-01-10T08:40:11;23.83;;;10.10;;
53497;SDS011;39382;47.168;16.008;2024-01-10T08:42:39;30.55;;;10.32;;
53497;SDS011;39382;47.168;16.008;2024-01-10T08:45:08;33.45;;;12.48;;
53497;SDS011;39382;47.168;16.008;2024-01-10T08:47:36;22.02;;;11.77;;
53497;SDS011;39382;47.168;16.008;2024-01-10T08:50:02;24.60;;;11.82;;
53497;SDS011;39382;47.168;16.008;2024-01-10T08:52:30;24.30;;;8.20;;
53497;SDS011;39382;47.168;16.008;2024-01-10T08:54:56;25.17;;;9.73;;
53497;SDS011;39382;47.168;16.008;2024-01-10T08:57:23;21.35;;;9.63;;
53497;SDS011;39382;47.168;16.008;2024-01-10T08:59:48;28.70;;;13.93;;
53497;SDS011;39382;47.168;16.008;2024-01-10T09:02:14;21.63;;;9.82;;
53497;SDS011;39382;47.168;16.008;2024-01-10T09:04:39;32.80;;;13.10;;
53497;SDS011;39382;47.168;16.008;2024-01-10T09:07:06;30.77;;;13.30;;
53497;SDS011;39382;47.168;16.008;2024-01-10T09:09:34;32.55;;;10.23;;
53497;SDS011;39382;47.168;16.008;2024-01-10T09:12:00;30.15;;;12.57;;
53497;SDS011;39382;47.168;16.008;2024-01-10T09:14:25;31.63;;;15.25;;
53497;SDS011;39382;47.168;16.008;2024-01-10T09:16:51;26.95;;;11.18;;
53497;SDS011;39382;47.168;16.008;2024-01-10T09:19:17;27.08;;;12.52;;
53497;SDS011;39382;47.168;16.008;2024-01-10T09:21:43;25.33;;;11.02;;
53497;SDS011;39382;47.168;16.008;2024-01-10T09:24:08;18.90;;;9.25;;
53497;SDS011;39382;47.168;16.008;2024-01-10T09:26:36;23.42;;;10.48;;
53497;SDS011;39382;47.168;16.008;2024-01-10T09:29:02;19.10;;;9.25;;
53497;SDS011;39382;47.168;16.008;2024-01-10T09:31:27;22.77;;;12.00;;
53497;SDS011;39382;47.168;16.008;2024-01-10T09:33:53;29.90;;;15.80;;
53497;SDS011;39382;47.168;16.008;2024-01-10T09:36:19;19.92;;;9.88;;
53497;SDS011;39382;47.168;16.008;2024-01-10T09:38:44;19.17;;;9.18;;
53497;SDS011;39382;47.168;16.008;2024-01-10T09:41:10;27.00;;;9.82;;
53497;SDS011;39382;47.168;16.008;2024-01-10T09:43:38;19.35;;;8.80;;
53497;SDS011;39382;47.168;16.008;2024-01-10T09:46:04;15.95;;;8.15;;
53497;SDS011;39382;47.168;16.008;2024-01-10T09:48:32;23.08;;;9.57;;
53497;SDS011;39382;47.168;16.008;2024-01-10T09:50:58;17.48;;;9.68;;
53497;SDS011;39382;47.168;16.008;2024-01-10T09:53:25;15.45;;;7.75;;
53497;SDS011;39382;47.168;16.008;2024-01-10T09:55:52;16.42;;;7.07;;
53497;SDS011;39382;47.168;16.008;2024-01-10T09:58:22;15.95;;;7.55;;
53497;SDS011;39382;47.168;16.008;2024-01-10T10:00:52;24.85;;;8.82;;
53497;SDS011;39382;47.168;16.008;2024-01-10T10:03:18;20.05;;;7.93;;
53497;SDS011;39382;47.168;16.008;2024-01-10T10:05:44;15.23;;;7.00;;
53497;SDS011;39382;47.168;16.008;2024-01-10T10:08:11;18.73;;;7.50;;
53497;SDS011;39382;47.168;16.008;2024-01-10T10:10:39;18.13;;;8.55;;
53497;SDS011;39382;47.168;16.008;2024-01-10T10:13:08;18.30;;;7.30;;
53497;SDS011;39382;47.168;16.008;2024-01-10T10:15:37;14.85;;;8.10;;
53497;SDS011;39382;47.168;16.008;2024-01-10T10:18:03;16.90;;;7.07;;
53497;SDS011;39382;47.168;16.008;2024-01-10T10:20:29;19.63;;;8.15;;
53497;SDS011;39382;47.168;16.008;2024-01-10T10:23:02;17.83;;;7.30;;
53497;SDS011;39382;47.168;16.008;2024-01-10T10:25:32;15.77;;;7.20;;
53497;SDS011;39382;47.168;16.008;2024-01-10T10:27:59;13.75;;;6.05;;
53497;SDS011;39382;47.168;16.008;2024-01-10T10:30:27;18.27;;;6.47;;
53497;SDS011;39382;47.168;16.008;2024-01-10T10:32:56;16.83;;;6.93;;
53497;SDS011;39382;47.168;16.008;2024-01-10T10:35:22;16.55;;;8.25;;
53497;SDS011;39382;47.168;16.008;2024-01-10T10:37:48;17.05;;;6.15;;
53497;SDS011;39382;47.168;16.008;2024-01-10T10:40:15;15.50;;;6.68;;
53497;SDS011;39382;47.168;16.008;2024-01-10T10:42:45;19.65;;;6.97;;
53497;SDS011;39382;47.168;16.008;2024-01-10T10:45:15;18.23;;;7.50;;
53497;SDS011;39382;47.168;16.008;2024-01-10T10:47:43;15.27;;;7.65;;
53497;SDS011;39382;47.168;16.008;2024-01-10T10:50:13;15.55;;;6.60;;
53497;SDS011;39382;47.168;16.008;2024-01-10T10:52:47;17.48;;;7.65;;
53497;SDS011;39382;47.168;16.008;2024-01-10T10:55:17;20.70;;;7.72;;
53497;SDS011;39382;47.168;16.008;2024-01-10T10:57:44;19.80;;;7.85;;
53497;SDS011;39382;47.168;16.008;2024-01-10T11:00:15;22.42;;;7.22;;
53497;SDS011;39382;47.168;16.008;2024-01-10T11:02:44;14.50;;;7.18;;
53497;SDS011;39382;47.168;16.008;2024-01-10T11:05:10;15.68;;;6.97;;
53497;SDS011;39382;47.168;16.008;2024-01-10T11:07:40;21.65;;;8.52;;
53497;SDS011;39382;47.168;16.008;2024-01-10T11:10:12;18.42;;;6.60;;
53497;SDS011;39382;47.168;16.008;2024-01-10T11:23:58;12.93;;;6.13;;
53497;SDS011;39382;47.168;16.008;2024-01-10T11:26:24;16.08;;;6.68;;
53497;SDS011;39382;47.168;16.008;2024-01-10T11:28:51;12.77;;;6.05;;
53497;SDS011;39382;47.168;16.008;2024-01-10T11:31:26;9.95;;;5.13;;
53497;SDS011;39382;47.168;16.008;2024-01-10T11:34:00;11.30;;;6.15;;
53497;SDS011;39382;47.168;16.008;2024-01-10T11:36:27;20.95;;;7.70;;
53497;SDS011;39382;47.168;16.008;2024-01-10T11:38:54;20.73;;;7.57;;
53497;SDS011;39382;47.168;16.008;2024-01-10T11:41:36;18.88;;;8.02;;
53497;SDS011;39382;47.168;16.008;2024-01-10T11:49:14;12.73;;;7.18;;
53497;SDS011;39382;47.168;16.008;2024-01-10T11:51:44;17.05;;;6.68;;
53497;SDS011;39382;47.168;16.008;2024-01-10T11:54:11;16.73;;;6.85;;
53497;SDS011;39382;47.168;16.008;2024-01-10T11:56:38;12.93;;;5.75;;
53497;SDS011;39382;47.168;16.008;2024-01-10T11:59:12;14.05;;;6.22;;
53497;SDS011;39382;47.168;16.008;2024-01-10T12:01:41;18.50;;;7.47;;
53497;SDS011;39382;47.168;16.008;2024-01-10T12:04:07;17.38;;;7.20;;
53497;SDS011;39382;47.168;16.008;2024-01-10T12:06:36;18.05;;;8.10;;
53497;SDS011;39382;47.168;16.008;2024-01-10T12:09:02;17.05;;;6.65;;
53497;SDS011;39382;47.168;16.008;2024-01-10T12:11:36;14.77;;;6.95;;
53497;SDS011;39382;47.168;16.008;2024-01-10T12:14:04;16.00;;;7.95;;
53497;SDS011;39382;47.168;16.008;2024-01-10T12:16:32;16.02;;;7.80;;
53497;SDS011;39382;47.168;16.008;2024-01-10T12:18:57;16.83;;;8.93;;
53497;SDS011;39382;47.168;16.008;2024-01-10T12:21:23;15.73;;;6.80;;
53497;SDS011;39382;47.168;16.008;2024-01-10T12:23:49;16.60;;;8.15;;
53497;SDS011;39382;47.168;16.008;2024-01-10T12:26:16;22.20;;;8.30;;
53497;SDS011;39382;47.168;16.008;2024-01-10T12:28:53;12.55;;;7.05;;
53497;SDS011;39382;47.168;16.008;2024-01-10T12:31:23;18.85;;;7.57;;
53497;SDS011;39382;47.168;16.008;2024-01-10T12:33:52;18.90;;;8.45;;
53497;SDS011;39382;47.168;16.008;2024-01-10T12:36:20;14.55;;;6.75;;
53497;SDS011;39382;47.168;16.008;2024-01-10T12:38:46;19.98;;;7.40;;
53497;SDS011;39382;47.168;16.008;2024-01-10T12:41:14;25.58;;;9.45;;
53497;SDS011;39382;47.168;16.008;2024-01-10T12:43:40;18.60;;;9.05;;
53497;SDS011;39382;47.168;16.008;2024-01-10T12:46:06;12.40;;;6.32;;
53497;SDS011;39382;47.168;16.008;2024-01-10T12:48:33;15.27;;;6.65;;
53497;SDS011;39382;47.168;16.008;2024-01-10T12:51:06;25.42;;;12.93;;
53497;SDS011;39382;47.168;16.008;2024-01-10T12:53:36;32.63;;;14.13;;
53497;SDS011;39382;47.168;16.008;2024-01-10T12:56:03;19.42;;;11.23;;
53497;SDS011;39382;47.168;16.008;2024-01-10T12:58:30;15.60;;;8.18;;
53497;SDS011;39382;47.168;16.008;2024-01-10T13:00:57;19.00;;;6.97;;
53497;SDS011;39382;47.168;16.008;2024-01-10T13:03:23;14.10;;;6.65;;
53497;SDS011;39382;47.168;16.008;2024-01-10T13:05:50;16.58;;;6.40;;
53497;SDS011;39382;47.168;16.008;2024-01-10T13:08:16;15.40;;;6.80;;
53497;SDS011;39382;47.168;16.008;2024-01-10T13:10:44;12.80;;;6.65;;
53497;SDS011;39382;47.168;16.008;2024-01-10T13:13:10;19.63;;;8.55;;
53497;SDS011;39382;47.168;16.008;2024-01-10T13:15:36;19.60;;;8.32;;
53497;SDS011;39382;47.168;16.008;2024-01-10T13:18:02;12.13;;;5.95;;
53497;SDS011;39382;47.168;16.008;2024-01-10T13:20:28;13.75;;;6.55;;
53497;SDS011;39382;47.168;16.008;2024-01-10T13:22:54;11.00;;;4.65;;
53497;SDS011;39382;47.168;16.008;2024-01-10T13:25:19;12.25;;;5.38;;
53497;SDS011;39382;47.168;16.008;2024-01-10T13:27:51;12.07;;;5.82;;
53497;SDS011;39382;47.168;16.008;2024-01-10T13:30:18;11.73;;;5.57;;
53497;SDS011;39382;47.168;16.008;2024-01-10T13:32:45;16.13;;;7.07;;
53497;SDS011;39382;47.168;16.008;2024-01-10T13:35:14;49.90;;;19.63;;
53497;SDS011;39382;47.168;16.008;2024-01-10T13:37:43;33.83;;;11.68;;
53497;SDS011;39382;47.168;16.008;2024-01-10T13:40:10;19.17;;;10.35;;
53497;SDS011;39382;47.168;16.008;2024-01-10T13:42:39;19.92;;;10.27;;
53497;SDS011;39382;47.168;16.008;2024-01-10T13:45:05;21.40;;;10.10;;
53497;SDS011;39382;47.168;16.008;2024-01-10T13:47:32;18.65;;;8.65;;
53497;SDS011;39382;47.168;16.008;2024-01-10T13:49:59;23.38;;;9.25;;
53497;SDS011;39382;47.168;16.008;2024-01-10T13:52:25;12.00;;;6.53;;
53497;SDS011;39382;47.168;16.008;2024-01-10T13:54:51;12.88;;;7.05;;
53497;SDS011;39382;47.168;16.008;2024-01-10T13:57:17;16.67;;;6.95;;
53497;SDS011;39382;47.168;16.008;2024-01-10T13:59:43;20.02;;;9.88;;
53497;SDS011;39382;47.168;16.008;2024-01-10T14:02:09;23.95;;;10.00;;
53497;SDS011;39382;47.168;16.008;2024-01-10T14:04:35;22.27;;;9.50;;
53497;SDS011;39382;47.168;16.008;2024-01-10T14:07:01;15.98;;;8.27;;
53497;SDS011;39382;47.168;16.008;2024-01-10T14:09:28;18.15;;;8.70;;
53497;SDS011;39382;47.168;16.008;2024-01-10T14:11:55;16.95;;;8.73;;
53497;SDS011;39382;47.168;16.008;2024-01-10T14:14:20;15.02;;;9.13;;
53497;SDS011;39382;47.168;16.008;2024-01-10T14:16:46;17.73;;;9.82;;
53497;SDS011;39382;47.168;16.008;2024-01-10T14:19:12;22.52;;;10.18;;
53497;SDS011;39382;47.168;16.008;2024-01-10T14:21:37;16.00;;;8.95;;
53497;SDS011;39382;47.168;16.008;2024-01-10T14:24:03;11.43;;;7.20;;
53497;SDS011;39382;47.168;16.008;2024-01-10T14:26:29;16.10;;;7.80;;
53497;SDS011;39382;47.168;16.008;2024-01-10T14:28:55;11.45;;;6.32;;
53497;SDS011;39382;47.168;16.008;2024-01-10T14:31:21;15.18;;;7.28;;
53497;SDS011;39382;47.168;16.008;2024-01-10T14:33:47;14.38;;;6.15;;